createdAt,value
2022-08-31T00:02:23.759Z,18.53
2022-08-31T00:04:52.274Z,18.57
2022-08-31T00:07:21.612Z,18.53
2022-08-31T00:09:49.749Z,18.35
2022-08-31T00:12:18.237Z,18.58
2022-08-31T00:14:46.621Z,18.48
2022-08-31T00:17:14.740Z,18.27
2022-08-31T00:19:42.814Z,18.31
2022-08-31T00:22:10.903Z,18.37
2022-08-31T00:24:40.224Z,18.22
2022-08-31T00:27:08.075Z,18.35
2022-08-31T00:29:35.994Z,18.27
2022-08-31T00:32:05.063Z,18.22
2022-08-31T00:34:33.545Z,18.15
2022-08-31T00:37:01.988Z,18.31
2022-08-31T00:39:30.205Z,18.32
2022-08-31T00:41:59.608Z,18.22
2022-08-31T00:44:27.665Z,18.22
2022-08-31T00:46:55.660Z,18.03
2022-08-31T00:49:27.927Z,17.94
2022-08-31T00:51:59.956Z,18.08
2022-08-31T00:54:31.865Z,18.06
2022-08-31T00:57:01.666Z,17.94
2022-08-31T00:59:30.091Z,17.96
2022-08-31T01:01:58.081Z,17.98
2022-08-31T01:04:26.104Z,17.96
2022-08-31T01:06:54.832Z,18.04
2022-08-31T01:09:24.476Z,17.85
2022-08-31T01:11:52.802Z,17.99
2022-08-31T01:14:22.356Z,17.94
2022-08-31T01:16:53.484Z,17.98
2022-08-31T01:19:29.907Z,17.95
2022-08-31T01:22:03.351Z,17.84
2022-08-31T01:24:35.745Z,17.67
2022-08-31T01:27:07.777Z,17.80
2022-08-31T01:29:37.320Z,17.88
2022-08-31T01:32:06.499Z,17.78
2022-08-31T01:34:35.217Z,17.93
2022-08-31T01:37:03.905Z,17.88
2022-08-31T01:39:32.051Z,17.94
2022-08-31T01:42:01.362Z,17.78
2022-08-31T01:44:30.143Z,18.00
2022-08-31T01:46:58.080Z,17.93
2022-08-31T01:49:28.031Z,17.90
2022-08-31T01:51:56.498Z,17.84
2022-08-31T01:54:26.667Z,18.13
2022-08-31T01:56:55.726Z,18.03
2022-08-31T01:59:41.815Z,18.04
2022-08-31T02:02:41.990Z,18.09
2022-08-31T02:05:12.168Z,17.91
2022-08-31T02:07:40.079Z,18.08
2022-08-31T02:10:08.509Z,18.15
2022-08-31T02:12:36.493Z,18.06
2022-08-31T02:15:10.859Z,18.09
2022-08-31T02:17:38.796Z,18.24
2022-08-31T02:20:09.268Z,18.16
2022-08-31T02:22:37.532Z,18.06
2022-08-31T02:25:06.243Z,18.23
2022-08-31T02:27:37.488Z,18.07
2022-08-31T02:30:11.869Z,18.10
2022-08-31T02:32:39.867Z,18.21
2022-08-31T02:35:09.456Z,18.23
2022-08-31T02:37:37.936Z,18.03
2022-08-31T02:40:11.933Z,18.31
2022-08-31T02:42:53.167Z,18.12
2022-08-31T02:45:25.858Z,18.33
2022-08-31T02:47:58.929Z,18.42
2022-08-31T02:50:30.506Z,18.27
2022-08-31T02:52:59.483Z,18.00
2022-08-31T02:55:28.941Z,18.17
2022-08-31T02:57:56.923Z,18.24
2022-08-31T03:00:26.259Z,18.15
2022-08-31T03:02:54.973Z,18.14
2022-08-31T03:05:23.857Z,18.07
2022-08-31T03:07:52.322Z,18.17
2022-08-31T03:10:22.345Z,18.26
2022-08-31T03:12:51.057Z,18.08
2022-08-31T03:15:20.466Z,18.15
2022-08-31T03:17:49.830Z,17.97
2022-08-31T03:20:22.255Z,18.11
2022-08-31T03:22:50.734Z,18.00
2022-08-31T03:25:21.107Z,18.05
2022-08-31T03:27:50.424Z,18.04
2022-08-31T03:30:21.539Z,17.83
2022-08-31T03:33:03.143Z,17.95
2022-08-31T03:35:33.478Z,17.73
2022-08-31T03:38:03.315Z,17.72
2022-08-31T03:40:32.364Z,17.87
2022-08-31T03:43:00.598Z,17.45
2022-08-31T03:45:31.999Z,17.65
2022-08-31T03:48:00.379Z,17.71
2022-08-31T03:50:31.654Z,17.65
2022-08-31T03:53:10.697Z,17.52
2022-08-31T03:55:41.027Z,17.53
2022-08-31T03:58:10.507Z,17.65
2022-08-31T04:00:40.077Z,17.52
2022-08-31T04:03:19.401Z,17.73
2022-08-31T04:06:10.702Z,17.53
2022-08-31T04:09:01.407Z,17.55
2022-08-31T04:12:01.583Z,17.40
2022-08-31T04:14:48.113Z,17.55
2022-08-31T04:17:34.697Z,17.40
2022-08-31T04:20:29.443Z,17.27
2022-08-31T04:22:59.527Z,17.43
2022-08-31T04:25:38.075Z,17.30
2022-08-31T04:28:09.036Z,17.41
2022-08-31T04:30:39.535Z,17.31
2022-08-31T04:33:07.832Z,17.25
2022-08-31T04:35:35.966Z,17.33
2022-08-31T04:38:05.268Z,17.41
2022-08-31T04:40:33.253Z,17.22
2022-08-31T04:43:01.284Z,17.39
2022-08-31T04:45:29.325Z,17.48
2022-08-31T04:47:57.280Z,17.44
2022-08-31T04:50:25.408Z,17.48
2022-08-31T04:53:08.707Z,17.50
2022-08-31T04:55:40.993Z,17.48
2022-08-31T04:58:10.344Z,17.53
2022-08-31T05:00:38.637Z,17.57
2022-08-31T05:03:22.991Z,17.53
2022-08-31T05:05:54.332Z,17.44
2022-08-31T05:08:23.917Z,17.50
2022-08-31T05:10:52.149Z,17.22
2022-08-31T05:13:20.954Z,17.33
2022-08-31T05:15:50.707Z,17.28
2022-08-31T05:18:22.896Z,17.36
2022-08-31T05:20:57.311Z,17.31
2022-08-31T05:23:26.818Z,17.14
2022-08-31T05:25:54.757Z,17.39
2022-08-31T05:28:24.664Z,17.39
2022-08-31T05:30:52.604Z,17.24
2022-08-31T05:33:33.120Z,17.32
2022-08-31T05:36:02.608Z,17.30
2022-08-31T05:38:31.968Z,17.61
2022-08-31T05:41:00.610Z,17.56
2022-08-31T05:43:29.918Z,17.54
2022-08-31T05:45:58.621Z,17.49
2022-08-31T05:48:33.465Z,17.52
2022-08-31T05:51:04.151Z,17.65
2022-08-31T05:53:34.003Z,17.77
2022-08-31T05:56:04.424Z,17.74
2022-08-31T05:58:34.402Z,17.79
2022-08-31T06:01:02.523Z,17.55
2022-08-31T06:04:01.797Z,17.78
2022-08-31T06:06:30.393Z,17.97
2022-08-31T06:09:00.289Z,17.77
2022-08-31T06:11:31.520Z,17.98
2022-08-31T06:14:01.547Z,18.12
2022-08-31T06:16:32.279Z,18.08
2022-08-31T06:19:03.403Z,18.22
2022-08-31T06:21:33.492Z,18.36
2022-08-31T06:24:04.496Z,18.36
2022-08-31T06:26:35.531Z,18.15
2022-08-31T06:29:09.220Z,18.39
2022-08-31T06:31:42.569Z,18.34
2022-08-31T06:34:11.310Z,18.40
2022-08-31T06:36:57.854Z,18.49
2022-08-31T06:39:36.050Z,18.53
2022-08-31T06:42:12.727Z,18.68
2022-08-31T06:45:19.486Z,18.76
2022-08-31T06:47:58.309Z,18.85
2022-08-31T06:50:28.437Z,18.85
2022-08-31T06:52:58.582Z,19.19
2022-08-31T06:55:50.756Z,19.02
2022-08-31T06:58:37.500Z,19.08
2022-08-31T07:01:36.306Z,19.51
2022-08-31T07:04:35.854Z,19.26
2022-08-31T07:07:05.832Z,19.33
2022-08-31T07:09:34.053Z,19.65
2022-08-31T07:12:04.028Z,19.74
2022-08-31T07:14:32.051Z,19.90
2022-08-31T07:17:02.963Z,19.72
2022-08-31T07:19:32.309Z,19.59
2022-08-31T07:22:02.573Z,19.82
2022-08-31T07:24:35.100Z,19.84
2022-08-31T07:27:10.034Z,19.86
2022-08-31T07:29:44.209Z,19.87
2022-08-31T07:32:16.152Z,19.91
2022-08-31T07:34:45.042Z,20.01
2022-08-31T07:37:43.225Z,20.26
2022-08-31T07:40:29.550Z,20.02
2022-08-31T07:43:04.671Z,20.43
2022-08-31T07:45:37.688Z,20.57
2022-08-31T07:48:08.141Z,20.67
2022-08-31T07:50:58.714Z,20.66
2022-08-31T07:53:42.735Z,20.43
2022-08-31T07:56:35.069Z,20.56
2022-08-31T07:59:15.948Z,20.85
2022-08-31T08:01:46.725Z,20.79
2022-08-31T08:04:25.262Z,20.82
2022-08-31T08:07:16.663Z,20.54
2022-08-31T08:09:50.849Z,20.37
2022-08-31T08:12:38.670Z,20.68
2022-08-31T08:15:16.380Z,20.82
2022-08-31T08:18:03.332Z,20.96
2022-08-31T08:20:38.040Z,20.84
2022-08-31T08:23:13.705Z,20.96
2022-08-31T08:25:45.066Z,21.12
2022-08-31T08:28:38.777Z,21.09
2022-08-31T08:31:14.130Z,21.15
2022-08-31T08:33:42.511Z,21.09
2022-08-31T08:36:10.639Z,21.36
2022-08-31T08:38:43.586Z,21.37
2022-08-31T08:41:16.116Z,21.42
2022-08-31T08:43:52.449Z,21.50
2022-08-31T08:47:37.651Z,22.01
2022-08-31T08:49:25.845Z,22.28
2022-08-31T08:52:03.208Z,22.60
2022-08-31T08:54:33.989Z,22.89
2022-08-31T08:57:12.847Z,22.97
2022-08-31T08:59:42.824Z,22.84
2022-08-31T09:02:16.218Z,23.22
2022-08-31T09:05:04.340Z,22.82
2022-08-31T09:08:16.204Z,22.29
2022-08-31T09:10:46.644Z,22.75
2022-08-31T09:13:25.686Z,22.64
2022-08-31T09:16:20.648Z,22.60
2022-08-31T09:18:55.000Z,22.66
2022-08-31T09:21:25.993Z,22.55
2022-08-31T09:24:01.647Z,22.26
2022-08-31T09:26:35.505Z,22.34
2022-08-31T09:29:14.993Z,22.85
2022-08-31T09:31:46.476Z,22.56
2022-08-31T09:34:29.537Z,23.01
2022-08-31T09:37:16.309Z,23.41
2022-08-31T09:39:47.631Z,23.38
2022-08-31T09:42:28.984Z,23.57
2022-08-31T09:45:00.084Z,23.41
2022-08-31T09:47:48.570Z,23.04
2022-08-31T09:50:31.733Z,23.33
2022-08-31T09:53:32.143Z,23.33
2022-08-31T09:56:19.880Z,22.93
2022-08-31T09:58:50.948Z,23.07
2022-08-31T10:01:23.353Z,23.72
2022-08-31T10:03:54.060Z,24.16
2022-08-31T10:06:46.649Z,24.71
2022-08-31T10:09:28.580Z,24.90
2022-08-31T10:12:00.490Z,25.06
2022-08-31T10:14:37.143Z,25.29
2022-08-31T10:17:11.731Z,24.83
2022-08-31T10:19:56.191Z,24.86
2022-08-31T10:22:32.402Z,25.35
2022-08-31T10:25:14.637Z,25.62
2022-08-31T10:27:48.660Z,25.38
2022-08-31T10:30:28.551Z,24.96
2022-08-31T10:33:04.334Z,25.01
2022-08-31T10:35:37.533Z,25.99
2022-08-31T10:38:21.216Z,26.37
2022-08-31T10:40:55.022Z,24.84
2022-08-31T10:43:29.161Z,25.80
2022-08-31T10:46:00.166Z,26.12
2022-08-31T10:48:28.618Z,25.03
2022-08-31T10:51:05.749Z,25.14
2022-08-31T10:53:52.253Z,25.36
2022-08-31T10:56:26.305Z,26.72
2022-08-31T10:59:14.461Z,25.55
2022-08-31T11:01:52.983Z,25.38
2022-08-31T11:04:44.777Z,24.46
2022-08-31T11:07:27.552Z,24.29
2022-08-31T11:10:05.737Z,25.42
2022-08-31T11:12:42.350Z,25.17
2022-08-31T11:15:51.607Z,25.62
2022-08-31T11:19:04.077Z,26.14
2022-08-31T11:21:52.172Z,26.82
2022-08-31T11:24:49.217Z,26.70
2022-08-31T11:27:25.333Z,26.14
2022-08-31T11:29:58.661Z,25.25
2022-08-31T11:32:36.699Z,25.19
2022-08-31T11:35:10.234Z,24.97
2022-08-31T11:37:54.235Z,24.90
2022-08-31T11:41:11.179Z,25.09
2022-08-31T11:43:45.940Z,24.65
2022-08-31T11:46:45.790Z,24.65
2022-08-31T11:49:40.458Z,24.70
2022-08-31T11:52:25.482Z,24.67
2022-08-31T11:55:17.877Z,24.81
2022-08-31T11:58:21.441Z,24.74
2022-08-31T12:00:58.675Z,24.27
2022-08-31T12:03:50.463Z,24.27
2022-08-31T12:07:06.972Z,24.36
2022-08-31T12:10:14.080Z,24.66
2022-08-31T12:13:18.787Z,25.69
2022-08-31T12:16:37.801Z,26.13
2022-08-31T12:19:43.199Z,25.32
2022-08-31T12:22:43.496Z,24.93
2022-08-31T12:25:23.344Z,24.90
2022-08-31T12:28:07.502Z,24.48
2022-08-31T12:30:35.528Z,24.55
2022-08-31T12:33:10.927Z,24.57
2022-08-31T12:35:40.322Z,25.11
2022-08-31T12:38:10.170Z,25.01
2022-08-31T12:40:45.253Z,25.41
2022-08-31T12:43:18.175Z,25.18
2022-08-31T12:46:18.923Z,24.77
2022-08-31T12:49:10.371Z,25.13
2022-08-31T12:51:46.575Z,25.29
2022-08-31T12:54:41.330Z,25.33
2022-08-31T12:57:26.966Z,25.78
2022-08-31T13:00:04.809Z,25.47
2022-08-31T13:02:35.837Z,25.28
2022-08-31T13:05:04.188Z,25.19
2022-08-31T13:07:35.888Z,24.51
2022-08-31T13:10:07.375Z,24.59
2022-08-31T13:12:35.749Z,24.61
2022-08-31T13:15:03.857Z,24.58
2022-08-31T13:17:37.699Z,24.88
2022-08-31T13:20:08.841Z,24.38
2022-08-31T13:22:41.359Z,24.01
2022-08-31T13:25:24.965Z,24.66
2022-08-31T13:27:53.125Z,24.75
2022-08-31T13:30:25.400Z,24.27
2022-08-31T13:32:54.772Z,24.37
2022-08-31T13:35:26.242Z,24.38
2022-08-31T13:38:04.675Z,24.55
2022-08-31T13:40:37.329Z,24.59
2022-08-31T13:43:08.453Z,24.91
2022-08-31T13:45:42.068Z,25.11
2022-08-31T13:48:16.667Z,25.16
2022-08-31T13:50:53.110Z,25.28
2022-08-31T13:53:42.160Z,25.54
2022-08-31T13:56:38.660Z,25.26
2022-08-31T13:59:25.141Z,25.03
2022-08-31T14:01:56.392Z,25.50
2022-08-31T14:04:46.437Z,24.94
2022-08-31T14:07:20.418Z,25.24
2022-08-31T14:09:52.894Z,24.72
2022-08-31T14:12:34.752Z,24.67
2022-08-31T14:15:09.240Z,24.74
2022-08-31T14:17:42.461Z,24.53
2022-08-31T14:20:27.315Z,24.28
2022-08-31T14:22:55.195Z,24.19
2022-08-31T14:25:24.535Z,24.12
2022-08-31T14:27:52.432Z,24.04
2022-08-31T14:30:21.057Z,24.05
2022-08-31T14:32:49.001Z,24.34
2022-08-31T14:35:17.059Z,24.50
2022-08-31T14:37:45.705Z,24.50
2022-08-31T14:40:13.968Z,24.10
2022-08-31T14:42:44.265Z,23.95
2022-08-31T14:45:18.579Z,23.98
2022-08-31T14:47:50.797Z,24.16
2022-08-31T14:50:21.520Z,24.20
2022-08-31T14:52:53.027Z,24.31
2022-08-31T14:55:23.132Z,24.16
2022-08-31T14:57:58.238Z,23.87
2022-08-31T15:00:31.640Z,24.31
2022-08-31T15:03:02.482Z,24.34
2022-08-31T15:05:32.296Z,24.20
2022-08-31T15:08:00.213Z,24.18
2022-08-31T15:10:28.852Z,24.24
2022-08-31T15:13:05.517Z,24.45
2022-08-31T15:15:33.549Z,24.28
2022-08-31T15:18:04.704Z,24.25
2022-08-31T15:20:39.908Z,24.70
2022-08-31T15:23:09.442Z,24.89
2022-08-31T15:25:39.238Z,24.84
2022-08-31T15:28:08.740Z,24.88
2022-08-31T15:30:39.819Z,24.84
2022-08-31T15:33:11.065Z,24.89
2022-08-31T15:35:41.720Z,24.76
2022-08-31T15:38:10.553Z,24.45
2022-08-31T15:40:39.953Z,24.47
2022-08-31T15:43:15.721Z,24.58
2022-08-31T15:45:43.868Z,24.86
2022-08-31T15:48:29.666Z,24.21
2022-08-31T15:51:00.192Z,24.44
2022-08-31T15:53:30.228Z,24.60
2022-08-31T15:56:05.442Z,24.66
2022-08-31T15:58:38.909Z,24.52
2022-08-31T16:01:12.541Z,24.51
2022-08-31T16:03:41.955Z,24.17
2022-08-31T16:06:11.194Z,24.10
2022-08-31T16:08:41.186Z,23.98
2022-08-31T16:11:11.321Z,24.12
2022-08-31T16:13:47.872Z,24.19
2022-08-31T16:16:18.327Z,24.31
2022-08-31T16:18:48.274Z,24.05
2022-08-31T16:21:20.157Z,24.08
2022-08-31T16:23:50.325Z,24.26
2022-08-31T16:26:21.526Z,23.97
2022-08-31T16:28:50.972Z,24.02
2022-08-31T16:31:18.934Z,24.04
2022-08-31T16:33:48.074Z,24.07
2022-08-31T16:36:18.296Z,24.01
2022-08-31T16:38:46.843Z,23.92
2022-08-31T16:41:15.934Z,23.59
2022-08-31T16:43:43.821Z,23.67
2022-08-31T16:46:37.241Z,23.47
2022-08-31T16:49:20.009Z,23.30
2022-08-31T16:51:50.480Z,23.60
2022-08-31T16:54:19.850Z,23.60
2022-08-31T16:56:50.476Z,23.45
2022-08-31T16:59:20.164Z,23.29
2022-08-31T17:01:49.423Z,23.14
2022-08-31T17:04:35.045Z,23.52
2022-08-31T17:07:10.631Z,23.39
2022-08-31T17:09:40.003Z,23.09
2022-08-31T17:12:12.948Z,22.99
2022-08-31T17:14:45.601Z,22.85
2022-08-31T17:17:16.735Z,22.84
2022-08-31T17:19:45.890Z,22.89
2022-08-31T17:22:23.300Z,22.66
2022-08-31T17:24:56.262Z,22.83
2022-08-31T17:27:26.074Z,22.64
2022-08-31T17:29:56.058Z,22.65
2022-08-31T17:32:27.635Z,22.53
2022-08-31T17:34:56.834Z,22.44
2022-08-31T17:37:28.336Z,22.64
2022-08-31T17:39:57.342Z,22.62
2022-08-31T17:42:27.934Z,22.64
2022-08-31T17:44:57.110Z,22.54
2022-08-31T17:47:27.382Z,22.43
2022-08-31T17:49:55.511Z,22.49
2022-08-31T17:52:23.663Z,22.19
2022-08-31T17:54:52.300Z,22.16
2022-08-31T17:57:24.861Z,22.36
2022-08-31T17:59:54.715Z,22.28
2022-08-31T18:02:26.472Z,22.04
2022-08-31T18:04:56.121Z,22.21
2022-08-31T18:07:24.369Z,22.04
2022-08-31T18:09:53.730Z,22.05
2022-08-31T18:12:22.767Z,21.98
2022-08-31T18:14:51.239Z,22.25
2022-08-31T18:17:21.517Z,21.85
2022-08-31T18:19:49.799Z,21.88
2022-08-31T18:22:19.743Z,22.15
2022-08-31T18:24:47.921Z,22.02
2022-08-31T18:27:16.103Z,21.95
2022-08-31T18:29:44.991Z,22.13
2022-08-31T18:32:13.627Z,22.05
2022-08-31T18:34:44.619Z,22.00
2022-08-31T18:37:13.382Z,21.76
2022-08-31T18:40:02.347Z,21.64
2022-08-31T18:42:49.608Z,21.66
2022-08-31T18:45:19.322Z,21.71
2022-08-31T18:48:13.598Z,21.55
2022-08-31T18:50:38.508Z,21.52
2022-08-31T18:53:11.135Z,21.48
2022-08-31T18:55:45.012Z,21.49
2022-08-31T18:58:13.097Z,21.38
2022-08-31T19:00:41.466Z,21.51
2022-08-31T19:03:09.563Z,21.45
2022-08-31T19:05:40.023Z,21.34
2022-08-31T19:08:08.242Z,21.40
2022-08-31T19:10:36.174Z,21.19
2022-08-31T19:17:19.718Z,21.15
2022-08-31T19:19:49.895Z,21.02
2022-08-31T19:22:20.189Z,21.22
2022-08-31T19:24:49.709Z,21.09
2022-08-31T19:27:17.725Z,21.00
2022-08-31T19:29:45.650Z,20.91
2022-08-31T19:32:13.826Z,20.91
2022-08-31T19:34:43.827Z,21.04
2022-08-31T19:37:13.563Z,20.90
2022-08-31T19:39:45.837Z,21.13
2022-08-31T19:42:15.114Z,20.85
2022-08-31T19:44:55.878Z,20.91
2022-08-31T19:47:38.689Z,20.96
2022-08-31T19:50:13.538Z,20.99
2022-08-31T19:52:42.346Z,20.80
2022-08-31T19:55:11.582Z,20.64
2022-08-31T19:57:43.334Z,20.65
2022-08-31T20:00:12.538Z,20.73
2022-08-31T20:02:42.173Z,20.69
2022-08-31T20:05:12.126Z,20.75
2022-08-31T20:07:41.409Z,20.61
2022-08-31T20:10:10.483Z,20.53
2022-08-31T20:12:39.494Z,20.32
2022-08-31T20:15:08.398Z,20.48
2022-08-31T20:17:36.483Z,20.43
2022-08-31T20:20:04.990Z,20.33
2022-08-31T20:22:34.378Z,20.29
2022-08-31T20:25:03.479Z,20.31
2022-08-31T20:27:32.096Z,20.37
2022-08-31T20:30:00.106Z,20.31
2022-08-31T20:32:28.976Z,20.20
2022-08-31T20:34:57.638Z,20.28
2022-08-31T20:37:25.639Z,20.34
2022-08-31T20:39:54.941Z,20.31
2022-08-31T20:42:23.309Z,20.31
2022-08-31T20:44:51.232Z,20.36
2022-08-31T20:47:36.634Z,20.34
2022-08-31T20:50:07.195Z,20.01
2022-08-31T20:52:36.132Z,20.10
2022-08-31T20:55:07.262Z,19.85
2022-08-31T20:57:37.567Z,19.99
2022-08-31T21:00:07.724Z,20.15
2022-08-31T21:02:36.454Z,19.82
2022-08-31T21:07:57.505Z,20.00
2022-08-31T21:10:35.658Z,19.82
2022-08-31T21:13:08.782Z,20.06
2022-08-31T21:15:42.045Z,20.02
2022-08-31T21:18:09.794Z,19.86
2022-08-31T21:20:37.783Z,19.95
2022-08-31T21:23:10.444Z,19.83
2022-08-31T21:25:44.922Z,19.83
2022-08-31T21:28:18.308Z,19.95
2022-08-31T21:30:49.143Z,19.85
2022-08-31T21:33:17.639Z,19.64
2022-08-31T21:35:45.615Z,19.72
2022-08-31T21:38:13.635Z,19.68
2022-08-31T21:40:49.534Z,19.70
2022-08-31T21:43:17.533Z,19.69
2022-08-31T21:45:45.529Z,19.57
2022-08-31T21:48:13.468Z,19.51
2022-08-31T21:50:41.411Z,19.68
2022-08-31T21:53:09.459Z,19.71
2022-08-31T21:55:38.478Z,19.70
2022-08-31T21:58:07.891Z,19.93
2022-08-31T22:00:41.768Z,19.72
2022-08-31T22:03:10.579Z,19.66
2022-08-31T22:05:41.579Z,19.88
2022-08-31T22:08:09.613Z,19.75
2022-08-31T22:10:40.954Z,19.76
2022-08-31T22:13:12.437Z,19.74
2022-08-31T22:15:42.670Z,19.86
2022-08-31T22:18:46.146Z,19.80
2022-08-31T22:20:59.723Z,19.80
2022-08-31T22:23:27.722Z,19.78
2022-08-31T22:25:55.708Z,19.77
2022-08-31T22:28:27.676Z,19.72
2022-08-31T22:30:56.388Z,19.83
2022-08-31T22:33:24.419Z,19.81
2022-08-31T22:35:52.432Z,19.98
2022-08-31T22:38:20.564Z,19.93
2022-08-31T22:40:49.952Z,19.80
2022-08-31T22:43:18.700Z,19.72
2022-08-31T22:45:49.074Z,19.74
2022-08-31T22:48:17.627Z,19.96
2022-08-31T22:50:45.682Z,19.75
2022-08-31T22:53:14.065Z,19.64
2022-08-31T22:55:43.127Z,19.83
2022-08-31T22:58:12.506Z,19.95
2022-08-31T23:00:40.861Z,19.90
2022-08-31T23:03:13.596Z,19.84
2022-08-31T23:05:43.888Z,19.59
2022-08-31T23:08:12.354Z,19.66
2022-08-31T23:10:40.398Z,19.65
2022-08-31T23:13:08.420Z,19.68
2022-08-31T23:15:38.252Z,19.59
2022-08-31T23:18:10.380Z,19.55
2022-08-31T23:20:41.764Z,19.80
2022-08-31T23:23:10.413Z,19.57
2022-08-31T23:25:40.390Z,19.52
2022-08-31T23:28:08.675Z,19.33
2022-08-31T23:30:37.798Z,19.49
2022-08-31T23:33:05.814Z,19.55
2022-08-31T23:35:37.345Z,19.39
2022-08-31T23:38:06.801Z,19.39
2022-08-31T23:40:34.961Z,19.46
2022-08-31T23:43:04.685Z,19.32
2022-08-31T23:45:33.568Z,19.39
2022-08-31T23:48:01.516Z,19.31
2022-08-31T23:50:29.561Z,19.11
2022-08-31T23:52:57.628Z,19.39
2022-08-31T23:55:29.004Z,19.06
2022-08-31T23:57:59.405Z,19.07
